Estación Meteorológica Peña el Pijo (Robertgarden) [ 07/23/19 12:44:19 CEST ]

Fecha Hora Presion(HPa) Temp (°C) Humedad % Rocio (°C) Viento ( m/s) Direccion Lluvia 1Hora(mm) Lluvia 24H(mm) LLuvia Total(mm)
2019-Jan-07 01:01:50 1016.100 -2.1 53 -10.4         161.09
2019-Jan-07 02:01:41 1016.000 -2.2 53 -10.5         161.09
2019-Jan-07 03:10:07 1016.300 -3.2 57 -10.6         161.09
2019-Jan-07 04:04:07 1016.100 -3.0 57 -10.4         161.09
2019-Jan-07 05:01:39 1015.800 -2.8 57 -10.2         161.09
2019-Jan-07 06:01:58 1015.400 -2.2 55 -10.1         161.09
2019-Jan-07 07:01:50 1015.200 -2.3 56 -9.9         161.09
2019-Jan-07 08:01:43 1015.500 -2.5 57 -9.9         161.09
2019-Jan-07 09:02:13 1015.600 -2.4 58 -9.6         161.09
2019-Jan-07 10:02:08 1016.100 2.1 56 -5.8         161.09
2019-Jan-07 11:01:45 1015.700 9.6 37 -4.5         161.09
2019-Jan-07 12:01:42 1015.300 13.9 27 -5.0         161.09
2019-Jan-07 13:01:37 1014.200 15.2 24 -5.5         161.09
2019-Jan-07 14:01:50 1013.500 16.9 19 -7.1 0.8 NNE     161.09
2019-Jan-07 15:01:53 1013.300 17.1 20 -6.0         161.09
2019-Jan-07 16:01:50 1013.600 15.3 24 -5.4         161.09
2019-Jan-07 17:01:55 1014.000 11.9 28 -6.1         161.09
2019-Jan-07 18:01:38 1014.700 9.3 33 -6.2         161.09
2019-Jan-07 19:01:53 1015.500 4.6 43 -7.2         161.09
2019-Jan-07 20:01:44 1015.900 2.2 48 -7.7         161.09
2019-Jan-07 21:01:43 1016.300 0.3 55 -7.7         161.09
2019-Jan-07 22:01:49 1016.700 -0.3 58 -7.6         161.09
2019-Jan-07 23:01:43 1017.000 -1.1 61 -7.7         161.09

Temperatura Máxima:17°    Temperatura Mínima:-3°
Presión Máxima:1017.000 Hpa    Presión Mínima:1013.300 Hpa


Volver